Time;durP1;ratioP1;P1;durP2;ratioP2;P2;SDS_P1;SDS_P2;PMS_P1;PMS_P2;Temp;Humidity;BMP_temperature;BMP_pressure;BME280_temperature;BME280_humidity;BME280_pressure;Samples;Min_cycle;Max_cycle;Signal;HPM_P1;HPM_P2
2021/08/16 00:02:10;;;;;;;4.55;2.87;;;25.30;67.10;;;;;;2290972;55;20963;-71
2021/08/16 00:04:37;;;;;;;5.80;2.80;;;25.40;67.10;;;;;;2532286;54;20984;-72
2021/08/16 00:07:03;;;;;;;4.47;2.87;;;25.40;67.10;;;;;;2293151;55;20937;-73
2021/08/16 00:09:29;;;;;;;6.85;3.25;;;25.40;67.00;;;;;;2292338;55;20934;-72
2021/08/16 00:11:56;;;;;;;5.70;3.15;;;25.40;67.10;;;;;;2296149;55;20983;-71
2021/08/16 00:14:22;;;;;;;5.40;2.83;;;25.40;67.10;;;;;;2518577;54;21011;-70
2021/08/16 00:16:49;;;;;;;4.68;2.92;;;25.40;67.00;;;;;;2475902;54;20992;-73
2021/08/16 00:19:15;;;;;;;4.53;3.00;;;25.40;67.00;;;;;;2291306;55;20971;-69
2021/08/16 00:21:44;;;;;;;5.30;3.25;;;25.40;67.00;;;;;;2281345;55;21002;-73
2021/08/16 00:24:10;;;;;;;6.62;3.22;;;25.40;67.00;;;;;;2292678;55;21920;-72
2021/08/16 00:26:37;;;;;;;6.57;3.45;;;25.40;67.00;;;;;;2295314;55;20955;-71
2021/08/16 00:29:06;;;;;;;5.10;3.33;;;25.40;67.00;;;;;;2521694;54;20944;-74
2021/08/16 00:31:32;;;;;;;6.65;3.60;;;25.40;67.10;;;;;;2386062;54;21022;-70
2021/08/16 00:33:59;;;;;;;6.43;3.60;;;25.40;67.10;;;;;;2294577;55;21031;-72
2021/08/16 00:36:26;;;;;;;5.32;3.17;;;25.50;67.20;;;;;;2293641;55;21027;-72
2021/08/16 00:38:52;;;;;;;5.47;3.47;;;25.50;67.20;;;;;;2289597;55;20995;-73
2021/08/16 00:41:19;;;;;;;5.37;3.05;;;25.50;67.20;;;;;;2426792;54;21014;-71
2021/08/16 00:43:45;;;;;;;5.95;3.75;;;25.50;67.20;;;;;;2286095;55;20991;-70
2021/08/16 00:46:13;;;;;;;5.72;3.20;;;25.50;67.20;;;;;;2282317;55;21019;-73
2021/08/16 00:48:43;;;;;;;5.43;3.03;;;25.50;67.10;;;;;;2304478;55;21079;-72
2021/08/16 00:51:19;;;;;;;5.43;3.33;;;25.60;67.10;;;;;;2289519;55;21417;-71
2021/08/16 00:53:46;;;;;;;5.57;3.50;;;25.60;67.10;;;;;;2300908;55;21065;-70
2021/08/16 00:56:12;;;;;;;5.05;3.10;;;25.60;67.10;;;;;;2292588;55;21011;-73
2021/08/16 00:58:39;;;;;;;4.45;2.78;;;25.60;67.10;;;;;;2289982;55;21023;-73
2021/08/16 01:01:05;;;;;;;6.37;3.35;;;25.60;67.00;;;;;;2285806;55;21007;-73
2021/08/16 01:03:34;;;;;;;7.32;3.40;;;25.60;66.90;;;;;;2282909;55;21023;-73
2021/08/16 01:06:02;;;;;;;7.45;2.87;;;25.60;66.90;;;;;;2289003;55;21007;-72
2021/08/16 01:08:30;;;;;;;5.55;3.05;;;25.60;66.80;;;;;;2307311;55;20928;-72
2021/08/16 01:10:57;;;;;;;5.03;2.92;;;25.60;66.80;;;;;;2410184;54;21008;-71
2021/08/16 01:13:23;;;;;;;7.00;3.00;;;25.60;66.70;;;;;;2292027;55;20994;-70
2021/08/16 01:16:03;;;;;;;4.55;2.78;;;25.60;66.70;;;;;;2479329;54;21122;-74
2021/08/16 01:18:32;;;;;;;5.50;2.75;;;25.60;66.70;;;;;;2285244;55;20985;-73
2021/08/16 01:21:06;;;;;;;4.37;2.70;;;25.60;66.70;;;;;;2530923;54;21039;-73
2021/08/16 01:23:32;;;;;;;4.32;2.35;;;25.60;66.70;;;;;;2283565;55;20987;-72
2021/08/16 01:26:03;;;;;;;4.18;2.70;;;25.60;66.60;;;;;;2337085;54;22219;-70
2021/08/16 01:28:29;;;;;;;4.90;2.97;;;25.60;66.60;;;;;;2272209;55;20963;-74
2021/08/16 01:30:57;;;;;;;4.53;2.83;;;25.60;66.50;;;;;;2297579;55;20991;-73
2021/08/16 01:33:23;;;;;;;4.25;2.47;;;25.60;66.50;;;;;;2300448;55;20975;-72
2021/08/16 01:35:50;;;;;;;3.95;2.60;;;25.60;66.40;;;;;;2386595;54;21443;-74
2021/08/16 01:38:19;;;;;;;4.35;2.42;;;25.60;66.40;;;;;;2298573;55;21036;-71
2021/08/16 01:40:47;;;;;;;3.97;2.70;;;25.60;66.40;;;;;;2291598;55;21034;-72
2021/08/16 01:43:13;;;;;;;5.12;2.55;;;25.60;66.30;;;;;;2305043;55;21003;-72
2021/08/16 01:45:42;;;;;;;4.32;2.50;;;25.60;66.30;;;;;;2296577;55;20952;-72
2021/08/16 01:48:08;;;;;;;5.43;2.65;;;25.50;66.20;;;;;;2528793;54;20975;-70
2021/08/16 01:50:34;;;;;;;4.45;2.70;;;25.50;66.20;;;;;;2316073;54;20963;-73
2021/08/16 01:53:01;;;;;;;5.78;2.75;;;25.50;66.20;;;;;;2294713;55;20996;-73
2021/08/16 01:55:28;;;;;;;5.47;2.62;;;25.40;66.00;;;;;;2297116;55;21035;-73
2021/08/16 01:57:54;;;;;;;4.10;2.50;;;25.50;66.10;;;;;;2353976;54;21035;-75
2021/08/16 02:00:20;;;;;;;3.85;2.33;;;25.50;66.10;;;;;;2309587;55;21071;-75
2021/08/16 02:02:47;;;;;;;5.07;2.58;;;25.40;66.00;;;;;;2304310;55;21051;-73
2021/08/16 02:05:13;;;;;;;4.53;2.70;;;25.50;66.10;;;;;;2526374;54;21352;-73
2021/08/16 02:07:39;;;;;;;6.00;2.50;;;25.40;65.90;;;;;;2300178;55;21031;-72
2021/08/16 02:10:05;;;;;;;5.05;2.62;;;25.40;65.90;;;;;;2296483;55;20979;-73
2021/08/16 02:12:33;;;;;;;5.25;2.80;;;25.40;66.00;;;;;;2286077;55;20970;-71
2021/08/16 02:14:59;;;;;;;4.57;2.60;;;25.40;66.00;;;;;;2308921;55;20962;-72
2021/08/16 02:17:26;;;;;;;5.55;2.78;;;25.40;65.90;;;;;;2310165;55;21030;-73
2021/08/16 02:19:53;;;;;;;5.60;2.80;;;25.40;65.90;;;;;;2298084;55;20955;-73
2021/08/16 02:22:19;;;;;;;4.70;2.67;;;25.40;65.90;;;;;;2297550;55;20954;-72
2021/08/16 02:24:46;;;;;;;5.05;2.87;;;25.30;65.80;;;;;;2286586;55;21037;-72
2021/08/16 02:27:12;;;;;;;4.25;2.80;;;25.30;65.80;;;;;;2287344;55;21083;-72
2021/08/16 02:29:39;;;;;;;4.47;2.50;;;25.30;65.80;;;;;;2291146;55;20932;-71
2021/08/16 02:32:06;;;;;;;4.30;2.65;;;25.30;65.80;;;;;;2291085;55;21013;-73
2021/08/16 02:34:35;;;;;;;4.15;2.55;;;25.20;65.70;;;;;;2295438;55;20987;-74
2021/08/16 02:37:01;;;;;;;4.20;2.62;;;25.20;65.60;;;;;;2369658;54;21919;-72
2021/08/16 02:39:27;;;;;;;4.75;2.75;;;25.20;65.60;;;;;;2291784;55;20963;-73
2021/08/16 02:41:54;;;;;;;5.47;3.10;;;25.20;65.60;;;;;;2301781;55;20987;-70
2021/08/16 02:44:21;;;;;;;5.68;3.05;;;25.20;65.60;;;;;;2523151;54;20964;-73
2021/08/16 02:46:47;;;;;;;6.60;3.00;;;25.20;65.60;;;;;;2302231;54;21022;-74
2021/08/16 02:49:15;;;;;;;5.55;3.00;;;25.10;65.60;;;;;;2396972;54;20960;-74
2021/08/16 02:51:41;;;;;;;4.93;2.90;;;25.10;65.70;;;;;;2517991;54;21272;-73
2021/08/16 02:54:07;;;;;;;5.85;3.15;;;25.10;65.70;;;;;;2273927;55;21024;-74
2021/08/16 02:56:34;;;;;;;6.90;3.35;;;25.00;65.70;;;;;;2320130;54;20987;-75
2021/08/16 02:59:00;;;;;;;4.30;2.75;;;25.00;65.70;;;;;;2302430;55;21028;-72
2021/08/16 03:01:27;;;;;;;5.62;2.85;;;25.00;65.80;;;;;;2299150;55;20967;-71
2021/08/16 03:03:53;;;;;;;3.67;2.20;;;25.00;65.80;;;;;;2304661;54;20960;-74
2021/08/16 03:06:23;;;;;;;4.90;2.85;;;25.00;65.90;;;;;;2304161;54;21840;-73
2021/08/16 03:08:52;;;;;;;4.40;2.90;;;25.00;65.90;;;;;;2292064;55;20963;-71
2021/08/16 03:11:18;;;;;;;4.35;2.95;;;25.00;65.90;;;;;;2290796;55;21590;-72
2021/08/16 03:13:45;;;;;;;5.12;3.33;;;25.00;65.90;;;;;;2296265;55;21002;-73
2021/08/16 03:16:11;;;;;;;5.78;3.20;;;25.00;66.00;;;;;;2304435;55;21007;-71
2021/08/16 03:18:37;;;;;;;6.00;3.65;;;25.00;66.00;;;;;;2295401;55;20987;-73
2021/08/16 03:21:04;;;;;;;6.03;3.70;;;25.00;65.90;;;;;;2297265;54;21371;-72
2021/08/16 03:23:30;;;;;;;5.95;3.80;;;25.00;66.00;;;;;;2302317;54;20996;-72
2021/08/16 03:26:04;;;;;;;8.95;4.68;;;25.00;66.00;;;;;;2290542;55;20991;-71
2021/08/16 03:28:30;;;;;;;5.85;3.70;;;25.00;65.90;;;;;;2307708;55;21044;-70
2021/08/16 03:30:57;;;;;;;6.55;3.47;;;25.00;65.90;;;;;;2290426;55;20995;-74
2021/08/16 03:33:23;;;;;;;5.37;3.35;;;25.00;66.00;;;;;;2308090;54;20947;-70
2021/08/16 03:35:50;;;;;;;4.87;3.30;;;25.00;65.90;;;;;;2295379;55;21004;-70
2021/08/16 03:38:19;;;;;;;5.93;3.12;;;25.00;65.90;;;;;;2295769;54;21007;-70
2021/08/16 03:40:46;;;;;;;4.55;3.08;;;25.00;65.90;;;;;;2293204;55;20955;-70
2021/08/16 03:43:14;;;;;;;6.12;3.15;;;25.10;66.00;;;;;;2473292;54;20959;-74
2021/08/16 03:45:43;;;;;;;4.53;3.03;;;25.10;66.00;;;;;;2274956;55;20959;-70
2021/08/16 03:48:11;;;;;;;4.82;3.10;;;25.10;65.90;;;;;;2452336;54;21053;-71
2021/08/16 03:50:38;;;;;;;4.70;3.12;;;25.10;65.70;;;;;;2297439;54;21058;-70
2021/08/16 03:53:08;;;;;;;5.55;3.33;;;25.10;65.70;;;;;;2523762;54;20987;-73
2021/08/16 03:55:34;;;;;;;7.28;2.95;;;25.10;65.50;;;;;;2298360;54;21767;-74
2021/08/16 03:58:00;;;;;;;5.45;3.17;;;25.10;65.40;;;;;;2297137;55;20948;-73
2021/08/16 04:00:28;;;;;;;5.75;3.20;;;25.10;65.30;;;;;;2520330;54;20942;-71
2021/08/16 04:02:54;;;;;;;4.50;2.83;;;25.10;65.30;;;;;;2294549;55;21079;-71
2021/08/16 04:05:20;;;;;;;6.07;3.25;;;25.10;65.30;;;;;;2296159;55;21010;-73
2021/08/16 04:07:47;;;;;;;4.68;2.90;;;25.10;65.20;;;;;;2293400;55;21055;-70
2021/08/16 04:10:14;;;;;;;5.93;3.30;;;25.10;65.10;;;;;;2291349;55;21011;-72
2021/08/16 04:12:41;;;;;;;4.55;2.78;;;25.10;65.00;;;;;;2324620;54;21841;-74
2021/08/16 04:15:09;;;;;;;4.68;3.00;;;25.10;65.00;;;;;;2296909;55;21005;-70
2021/08/16 04:17:36;;;;;;;4.40;2.67;;;25.10;64.90;;;;;;2453470;54;20963;-70
2021/08/16 04:20:03;;;;;;;5.93;2.80;;;25.00;64.80;;;;;;2294985;55;20975;-71
2021/08/16 04:22:29;;;;;;;4.65;2.95;;;25.00;64.70;;;;;;2294333;55;21006;-71
2021/08/16 04:24:55;;;;;;;5.10;2.70;;;25.00;64.50;;;;;;2293506;55;21058;-72
2021/08/16 04:27:22;;;;;;;5.68;3.00;;;25.00;64.40;;;;;;2294365;55;20970;-71
2021/08/16 04:29:48;;;;;;;4.87;2.85;;;25.00;64.20;;;;;;2283619;55;21011;-70
2021/08/16 04:32:14;;;;;;;10.00;2.83;;;24.90;63.90;;;;;;2297276;55;21115;-73
2021/08/16 04:34:41;;;;;;;4.53;2.67;;;24.90;63.80;;;;;;2285451;55;20923;-71
2021/08/16 04:37:07;;;;;;;4.97;2.42;;;24.80;63.70;;;;;;2305643;55;21047;-68
2021/08/16 04:39:33;;;;;;;4.60;2.47;;;24.80;63.70;;;;;;2293968;55;21337;-70
2021/08/16 04:42:00;;;;;;;4.22;2.53;;;24.80;63.70;;;;;;2523116;54;21554;-67
2021/08/16 04:44:26;;;;;;;5.37;2.70;;;24.70;63.50;;;;;;2296219;55;21052;-67
2021/08/16 04:46:52;;;;;;;4.78;2.58;;;24.70;63.40;;;;;;2296277;54;21059;-70
2021/08/16 04:49:21;;;;;;;4.40;2.40;;;24.60;63.30;;;;;;2342909;54;20967;-71
2021/08/16 04:51:47;;;;;;;5.40;2.28;;;24.60;63.30;;;;;;2299851;55;20969;-67
2021/08/16 04:54:15;;;;;;;4.93;2.37;;;24.60;63.40;;;;;;2295575;54;20998;-68
2021/08/16 04:56:43;;;;;;;4.60;2.30;;;24.60;63.50;;;;;;2296243;55;20935;-69
2021/08/16 04:59:09;;;;;;;4.53;2.30;;;24.50;63.30;;;;;;2519407;54;20943;-70
2021/08/16 05:01:37;;;;;;;3.53;2.20;;;24.50;63.30;;;;;;2291283;55;20951;-67
2021/08/16 05:04:05;;;;;;;4.12;2.12;;;24.50;63.30;;;;;;2291716;55;20992;-66
2021/08/16 05:06:33;;;;;;;4.78;2.30;;;24.40;63.20;;;;;;2293704;55;20984;-67
2021/08/16 05:09:01;;;;;;;4.00;2.20;;;24.40;63.20;;;;;;2290857;55;20944;-68
2021/08/16 05:11:30;;;;;;;5.37;2.60;;;24.40;63.90;;;;;;2290595;55;21114;-67
2021/08/16 05:13:58;;;;;;;4.20;2.40;;;24.40;63.20;;;;;;2285395;54;21098;-69
2021/08/16 05:16:25;;;;;;;4.05;2.25;;;24.40;63.30;;;;;;2299508;55;21350;-69
2021/08/16 05:18:52;;;;;;;4.28;2.17;;;24.30;63.10;;;;;;2290736;55;21511;-67
2021/08/16 05:21:19;;;;;;;5.00;2.62;;;24.30;62.90;;;;;;2294182;55;21049;-67
2021/08/16 05:23:48;;;;;;;4.62;1.92;;;24.30;62.60;;;;;;2293860;55;21895;-72
2021/08/16 05:26:14;;;;;;;3.35;1.77;;;24.30;62.50;;;;;;2290935;55;20947;-68
2021/08/16 05:28:40;;;;;;;3.62;1.75;;;24.20;62.40;;;;;;2297457;55;21009;-68
2021/08/16 05:31:06;;;;;;;4.57;2.08;;;24.20;62.40;;;;;;2294530;55;21008;-68
2021/08/16 05:33:32;;;;;;;4.32;2.00;;;24.20;62.30;;;;;;2296744;54;20995;-67
2021/08/16 05:35:59;;;;;;;4.00;1.95;;;24.10;62.30;;;;;;2299139;54;20979;-66
2021/08/16 05:38:25;;;;;;;3.20;1.67;;;24.10;62.40;;;;;;2308393;54;21114;-71
2021/08/16 05:40:51;;;;;;;4.53;1.62;;;24.10;62.40;;;;;;2293338;55;20979;-67
2021/08/16 05:43:19;;;;;;;3.47;1.50;;;24.10;62.50;;;;;;2296368;55;21146;-67
2021/08/16 05:45:45;;;;;;;3.05;1.42;;;24.10;62.40;;;;;;2295300;54;20975;-67
2021/08/16 05:48:11;;;;;;;2.78;1.42;;;24.10;62.50;;;;;;2519790;54;20995;-72
2021/08/16 05:50:38;;;;;;;3.28;1.37;;;24.10;62.50;;;;;;2294977;55;20947;-67
2021/08/16 05:53:06;;;;;;;2.95;1.50;;;24.00;62.40;;;;;;2298615;55;21448;-67
2021/08/16 05:55:35;;;;;;;3.97;1.90;;;24.10;62.50;;;;;;2292981;54;20955;-67
2021/08/16 05:58:01;;;;;;;4.10;1.87;;;24.10;62.40;;;;;;2519174;54;21026;-68
2021/08/16 06:00:27;;;;;;;2.75;1.45;;;24.10;62.50;;;;;;2297610;54;21014;-69
2021/08/16 06:02:54;;;;;;;4.03;1.50;;;24.10;62.40;;;;;;2294716;55;20911;-68
2021/08/16 06:05:21;;;;;;;3.35;1.52;;;24.10;62.10;;;;;;2297007;55;20955;-72
2021/08/16 06:07:47;;;;;;;3.50;1.60;;;24.10;61.80;;;;;;2292712;55;21003;-67
2021/08/16 06:10:14;;;;;;;2.90;1.42;;;24.10;61.70;;;;;;2293345;55;20951;-68
2021/08/16 06:12:40;;;;;;;2.95;1.40;;;24.00;61.40;;;;;;2294822;55;21003;-68
2021/08/16 06:15:06;;;;;;;3.15;1.40;;;24.00;61.50;;;;;;2292797;55;21043;-68
2021/08/16 06:17:37;;;;;;;3.87;1.45;;;24.00;61.50;;;;;;2309598;54;21574;-72
2021/08/16 06:22:34;;;;;;;2.97;1.20;;;24.00;61.20;;;;;;2282459;55;21006;-82
2021/08/16 06:25:01;;;;;;;3.75;1.10;;;24.00;61.30;;;;;;2295219;55;21176;-84
2021/08/16 06:27:27;;;;;;;3.33;1.30;;;24.00;61.50;;;;;;2505854;54;20993;-81
2021/08/16 06:29:53;;;;;;;3.47;1.37;;;24.00;61.50;;;;;;2264107;55;21353;-84
2021/08/16 06:32:20;;;;;;;3.42;1.50;;;24.00;61.30;;;;;;2253335;55;20965;-83
2021/08/16 06:34:47;;;;;;;3.45;1.23;;;24.00;61.40;;;;;;2266309;55;20994;-83
2021/08/16 06:37:13;;;;;;;3.30;1.30;;;24.00;61.30;;;;;;2485545;55;21021;-81
2021/08/16 06:39:40;;;;;;;2.03;0.95;;;24.00;61.40;;;;;;2264312;55;20958;-84
2021/08/16 06:42:08;;;;;;;2.40;1.10;;;24.00;61.20;;;;;;2470233;55;20984;-83
2021/08/16 06:44:36;;;;;;;3.83;1.35;;;24.10;61.40;;;;;;2486068;55;21084;-87
2021/08/16 06:47:03;;;;;;;2.65;1.30;;;24.10;61.40;;;;;;2472517;55;22116;-84
2021/08/16 06:49:29;;;;;;;3.15;1.20;;;24.20;61.30;;;;;;2484501;54;21153;-83
2021/08/16 06:51:56;;;;;;;3.12;1.30;;;24.10;61.10;;;;;;2267644;55;21912;-86
2021/08/16 06:54:23;;;;;;;3.08;1.30;;;24.10;61.00;;;;;;2265590;55;20978;-84
2021/08/16 06:56:56;;;;;;;3.67;1.30;;;24.20;60.90;;;;;;2485700;55;21123;-86
2021/08/16 06:59:22;;;;;;;3.60;1.40;;;24.20;60.80;;;;;;2485395;55;21054;-85
2021/08/16 07:01:49;;;;;;;3.60;1.62;;;24.20;60.70;;;;;;2459438;55;20987;-85
2021/08/16 07:04:16;;;;;;;3.30;1.40;;;24.20;60.60;;;;;;2266887;55;21365;-85
2021/08/16 07:06:42;;;;;;;3.10;1.37;;;24.30;60.50;;;;;;2453860;55;20992;-84
2021/08/16 07:09:09;;;;;;;4.00;1.45;;;24.30;60.50;;;;;;2480878;55;20978;-85
2021/08/16 07:11:35;;;;;;;3.85;1.52;;;24.30;60.50;;;;;;2480196;55;20961;-83
2021/08/16 07:14:02;;;;;;;3.55;1.50;;;24.30;60.50;;;;;;2257733;55;21308;-87
2021/08/16 07:16:28;;;;;;;2.60;1.20;;;24.30;60.60;;;;;;2269732;55;21526;-83
2021/08/16 07:18:55;;;;;;;4.03;1.25;;;24.40;60.60;;;;;;2481237;55;21417;-85
2021/08/16 07:21:21;;;;;;;3.67;1.70;;;24.40;60.70;;;;;;2260007;55;21484;-83
2021/08/16 07:23:47;;;;;;;3.60;1.48;;;24.50;60.60;;;;;;2485008;55;20962;-84
2021/08/16 07:26:14;;;;;;;3.28;1.42;;;24.50;60.50;;;;;;2485666;55;21014;-85
2021/08/16 07:28:41;;;;;;;3.67;1.55;;;24.60;60.50;;;;;;2483960;55;21087;-84
2021/08/16 07:31:07;;;;;;;3.90;1.70;;;24.70;60.50;;;;;;2263754;55;21082;-85
2021/08/16 07:33:33;;;;;;;4.40;1.42;;;24.80;60.60;;;;;;2482449;55;21386;-84
2021/08/16 07:36:00;;;;;;;3.70;1.40;;;24.80;60.20;;;;;;2273671;55;21373;-85
2021/08/16 07:38:26;;;;;;;2.58;1.10;;;24.90;59.80;;;;;;2448128;55;21540;-84
2021/08/16 07:40:52;;;;;;;3.05;1.42;;;24.90;59.50;;;;;;2469898;55;21005;-86
2021/08/16 07:43:20;;;;;;;3.90;1.25;;;24.90;59.40;;;;;;2483636;55;21005;-85
2021/08/16 07:45:48;;;;;;;4.28;1.50;;;24.90;59.10;;;;;;2485399;55;21026;-84
2021/08/16 07:48:15;;;;;;;2.97;1.20;;;24.90;58.90;;;;;;2485882;55;21050;-83
2021/08/16 07:50:42;;;;;;;3.65;1.50;;;24.80;58.60;;;;;;2250767;55;21010;-84
2021/08/16 07:53:08;;;;;;;3.85;1.40;;;24.80;58.40;;;;;;2484465;55;21066;-85
2021/08/16 07:55:34;;;;;;;3.22;1.30;;;24.80;58.50;;;;;;2485597;55;20958;-85
2021/08/16 07:58:01;;;;;;;3.10;1.30;;;24.70;58.40;;;;;;2486385;55;21081;-84
2021/08/16 08:00:27;;;;;;;3.33;1.17;;;24.70;58.40;;;;;;2261642;55;21042;-84
2021/08/16 08:02:54;;;;;;;2.90;1.25;;;24.70;58.40;;;;;;2484700;55;21022;-85
2021/08/16 08:05:22;;;;;;;3.75;1.25;;;24.60;58.30;;;;;;2487136;55;21040;-86
2021/08/16 08:07:48;;;;;;;3.92;1.40;;;24.60;58.40;;;;;;2266715;55;21062;-83
2021/08/16 08:10:16;;;;;;;2.70;1.10;;;24.50;58.30;;;;;;2267210;55;20982;-85
2021/08/16 08:12:43;;;;;;;3.83;1.37;;;24.50;58.50;;;;;;2267800;55;20962;-85
2021/08/16 08:15:10;;;;;;;2.90;1.40;;;24.40;58.50;;;;;;2252946;55;21481;-85
2021/08/16 08:17:36;;;;;;;4.53;1.92;;;24.40;58.70;;;;;;2488598;55;21315;-84
2021/08/16 08:20:04;;;;;;;3.55;1.20;;;24.30;58.90;;;;;;2489889;55;21904;-84
2021/08/16 08:22:31;;;;;;;3.58;1.15;;;24.30;59.00;;;;;;2269574;55;21806;-85
2021/08/16 08:24:58;;;;;;;2.90;1.10;;;24.30;59.20;;;;;;2261085;55;21061;-85
2021/08/16 08:27:24;;;;;;;2.47;1.08;;;24.30;59.40;;;;;;2488146;55;20990;-84
2021/08/16 08:29:53;;;;;;;3.55;1.30;;;24.20;59.60;;;;;;2489632;55;20974;-86
2021/08/16 08:32:20;;;;;;;3.55;1.30;;;24.20;59.80;;;;;;2489125;55;20969;-84
2021/08/16 08:34:46;;;;;;;3.67;1.42;;;24.20;59.90;;;;;;2478532;55;21572;-83
2021/08/16 08:37:15;;;;;;;3.05;1.33;;;24.20;60.00;;;;;;2268630;55;21014;-85
2021/08/16 08:39:48;;;;;;;3.10;1.12;;;24.30;60.30;;;;;;2487695;55;20966;-85
2021/08/16 08:42:15;;;;;;;3.10;1.27;;;24.30;60.50;;;;;;2478271;55;21042;-86
2021/08/16 08:44:41;;;;;;;3.03;1.17;;;24.30;60.60;;;;;;2268540;55;21544;-84
2021/08/16 08:47:08;;;;;;;4.53;1.20;;;24.30;60.80;;;;;;2489760;55;21427;-86
2021/08/16 08:49:34;;;;;;;3.37;1.50;;;24.40;61.10;;;;;;2268542;55;20982;-85
2021/08/16 08:52:00;;;;;;;3.37;1.30;;;24.40;61.20;;;;;;2466463;55;21465;-84
2021/08/16 08:54:29;;;;;;;2.95;1.23;;;24.50;61.20;;;;;;2268178;55;20978;-85
2021/08/16 08:57:22;;;;;;;4.28;1.45;;;24.60;60.90;;;;;;2488549;55;20943;-85
2021/08/16 08:59:48;;;;;;;3.65;1.42;;;24.70;60.90;;;;;;2488524;54;21201;-83
2021/08/16 09:02:15;;;;;;;3.15;1.17;;;24.80;60.80;;;;;;2488649;55;21022;-85
2021/08/16 09:04:51;;;;;;;5.15;1.60;;;24.80;60.50;;;;;;2489246;55;21022;-84
2021/08/16 09:07:18;;;;;;;3.10;1.23;;;24.90;60.20;;;;;;2250146;55;20994;-86
2021/08/16 09:09:54;;;;;;;3.65;1.35;;;25.00;60.30;;;;;;2268099;55;21018;-83
2021/08/16 09:13:23;;;;;;;3.42;1.58;;;25.00;59.80;;;;;;2475349;55;20953;-85
2021/08/16 09:15:50;;;;;;;4.10;1.48;;;25.20;59.80;;;;;;2477047;55;21042;-82
2021/08/16 09:18:28;;;;;;;4.80;1.70;;;25.20;59.90;;;;;;2246203;55;21009;-85
2021/08/16 09:20:54;;;;;;;4.20;1.45;;;25.30;59.40;;;;;;2475155;54;20983;-84
2021/08/16 09:23:20;;;;;;;4.05;1.70;;;25.30;59.40;;;;;;2490740;55;21354;-83
2021/08/16 09:25:54;;;;;;;3.58;1.25;;;25.40;59.30;;;;;;2487813;55;21363;-86
2021/08/16 09:28:28;;;;;;;3.10;1.40;;;25.40;58.80;;;;;;2455493;55;21071;-83
2021/08/16 09:30:54;;;;;;;3.55;1.17;;;25.40;58.70;;;;;;2250697;55;20978;-85
2021/08/16 09:33:21;;;;;;;3.60;1.52;;;25.40;58.70;;;;;;2492320;55;20954;-82
2021/08/16 09:35:55;;;;;;;5.85;3.40;;;25.50;58.60;;;;;;2273056;55;21018;-82
2021/08/16 09:38:32;;;;;;;4.62;2.08;;;25.40;58.50;;;;;;2491254;55;21303;-83
2021/08/16 09:40:59;;;;;;;4.90;1.60;;;25.40;58.30;;;;;;2280377;55;21078;-84
2021/08/16 09:43:26;;;;;;;3.58;1.52;;;25.50;58.50;;;;;;2272095;55;21578;-84
2021/08/16 09:45:52;;;;;;;2.47;1.15;;;25.40;58.30;;;;;;2272334;55;21021;-85
2021/08/16 09:48:23;;;;;;;4.28;1.48;;;25.50;58.40;;;;;;2261809;55;20998;-85
2021/08/16 09:50:56;;;;;;;3.10;1.42;;;25.50;58.30;;;;;;2492729;55;21522;-84
2021/08/16 09:53:24;;;;;;;4.20;1.60;;;25.50;58.40;;;;;;2492726;55;20953;-85
2021/08/16 09:55:54;;;;;;;5.25;1.40;;;25.60;58.50;;;;;;2494011;55;21066;-83
2021/08/16 09:58:20;;;;;;;3.55;1.83;;;25.60;58.40;;;;;;2492467;54;21886;-84
2021/08/16 10:00:48;;;;;;;5.00;1.40;;;25.60;58.40;;;;;;2275727;55;21006;-86
2021/08/16 10:03:16;;;;;;;6.32;1.77;;;25.70;58.50;;;;;;2260417;55;21923;-86
2021/08/16 10:05:45;;;;;;;3.97;1.70;;;25.70;57.70;;;;;;2273653;55;21874;-86
2021/08/16 10:08:14;;;;;;;3.47;1.65;;;25.70;57.60;;;;;;2275332;55;21038;-84
2021/08/16 10:10:41;;;;;;;3.30;1.42;;;25.70;57.50;;;;;;2492446;55;21021;-83
2021/08/16 10:13:09;;;;;;;3.67;1.25;;;25.70;57.50;;;;;;2260271;55;21816;-86
2021/08/16 10:15:42;;;;;;;4.60;1.42;;;25.70;57.50;;;;;;2468324;55;20986;-85
2021/08/16 10:19:12;;;;;;;4.20;1.73;;;25.70;57.20;;;;;;2479647;54;21020;-84
2021/08/16 10:21:39;;;;;;;2.95;1.45;;;25.80;57.10;;;;;;2484120;55;21424;-85
2021/08/16 10:26:52;;;;;;;4.70;1.48;;;25.80;57.00;;;;;;2270986;55;21436;-83
2021/08/16 10:29:19;;;;;;;2.85;1.42;;;25.80;56.80;;;;;;2451989;55;21823;-86
2021/08/16 10:31:50;;;;;;;3.50;1.80;;;25.90;57.00;;;;;;2486714;55;20966;-83
2021/08/16 10:35:18;;;;;;;3.50;1.40;;;25.90;56.50;;;;;;2478519;55;20948;-85
2021/08/16 10:37:45;;;;;;;3.20;1.50;;;25.90;55.80;;;;;;2457829;55;20966;-83
2021/08/16 10:40:22;;;;;;;3.95;1.83;;;25.90;56.10;;;;;;2494199;55;20979;-83
2021/08/16 10:42:51;;;;;;;3.35;1.62;;;25.90;55.30;;;;;;2494004;55;20978;-83
2021/08/16 10:45:24;;;;;;;5.10;2.17;;;25.90;55.70;;;;;;2495317;55;21035;-86
2021/08/16 10:47:59;;;;;;;5.22;2.10;;;25.90;55.00;;;;;;2496560;55;21042;-83
2021/08/16 10:50:25;;;;;;;3.40;1.40;;;25.90;55.00;;;;;;2262343;55;21042;-87
2021/08/16 10:53:10;;;;;;;4.25;1.52;;;25.90;55.40;;;;;;2274970;55;20998;-84
2021/08/16 10:55:40;;;;;;;4.28;1.60;;;25.90;55.00;;;;;;2269349;55;21261;-86
2021/08/16 10:58:08;;;;;;;4.05;1.75;;;25.90;55.30;;;;;;2242238;55;21034;-86
2021/08/16 11:00:34;;;;;;;3.67;1.75;;;25.90;55.30;;;;;;2279247;55;20982;-84
2021/08/16 11:03:01;;;;;;;2.65;1.30;;;25.90;55.00;;;;;;2273382;55;21042;-85
2021/08/16 11:05:44;;;;;;;5.35;2.37;;;25.90;54.80;;;;;;2493447;55;20974;-84
2021/08/16 11:08:10;;;;;;;;;;;25.90;54.60;;;;;;2497477;55;21071;-85
2021/08/16 11:10:48;;;;;;;3.33;1.62;;;25.90;55.30;;;;;;2272365;55;20307;-83
2021/08/16 11:13:18;;;;;;;5.20;2.00;;;25.90;54.30;;;;;;2493773;55;20997;-84
2021/08/16 11:15:45;;;;;;;4.50;2.00;;;25.90;54.30;;;;;;2257022;55;20982;-85
2021/08/16 11:18:19;;;;;;;4.68;2.00;;;25.90;54.40;;;;;;2493078;55;21057;-84
2021/08/16 11:20:47;;;;;;;5.18;2.00;;;25.90;54.00;;;;;;2494815;55;21213;-85
2021/08/16 11:23:13;;;;;;;3.85;1.70;;;25.80;54.10;;;;;;2492243;54;21014;-85
2021/08/16 11:25:49;;;;;;;5.25;2.25;;;25.80;54.20;;;;;;2492883;55;21555;-84
2021/08/16 11:28:20;;;;;;;4.70;2.15;;;25.80;53.70;;;;;;2492364;55;22014;-83
2021/08/16 11:30:47;;;;;;;4.65;1.95;;;25.80;54.00;;;;;;2268646;55;21025;-84
2021/08/16 11:33:22;;;;;;;4.93;1.80;;;25.80;54.20;;;;;;2277978;55;20953;-85
2021/08/16 11:35:48;;;;;;;4.78;1.77;;;25.80;53.80;;;;;;2272592;55;21049;-85
2021/08/16 11:38:15;;;;;;;4.37;2.00;;;25.80;54.00;;;;;;2493537;55;21125;-83
2021/08/16 11:40:42;;;;;;;4.90;1.83;;;25.80;54.10;;;;;;2449752;55;21052;-84
2021/08/16 11:43:08;;;;;;;3.95;1.90;;;25.90;54.30;;;;;;2469208;55;21322;-87
2021/08/16 11:45:38;;;;;;;5.57;2.00;;;25.90;54.20;;;;;;2264841;55;20953;-83
2021/08/16 11:48:04;;;;;;;6.53;2.20;;;25.90;53.60;;;;;;2465031;55;20977;-84
2021/08/16 11:50:30;;;;;;;4.50;2.33;;;25.90;53.80;;;;;;2274370;55;20997;-85
2021/08/16 11:52:57;;;;;;;4.57;2.00;;;25.90;53.50;;;;;;2270192;55;21404;-84
2021/08/16 11:55:30;;;;;;;5.25;2.53;;;25.90;53.20;;;;;;2246611;55;21062;-85
2021/08/16 11:57:56;;;;;;;5.25;2.20;;;26.00;52.70;;;;;;2483287;55;20994;-84
2021/08/16 12:00:24;;;;;;;6.35;1.70;;;25.90;52.50;;;;;;2262465;55;20956;-86
2021/08/16 12:02:50;;;;;;;5.97;2.70;;;25.90;52.20;;;;;;2492797;55;21014;-87
2021/08/16 12:05:17;;;;;;;4.18;1.90;;;25.80;52.10;;;;;;2494385;55;21034;-85
2021/08/16 12:07:45;;;;;;;4.90;1.92;;;25.80;51.90;;;;;;2492514;55;20973;-86
2021/08/16 12:10:16;;;;;;;4.47;2.12;;;25.80;51.70;;;;;;2488505;55;21033;-83
2021/08/16 12:12:43;;;;;;;4.18;1.70;;;25.70;51.60;;;;;;2477463;55;21405;-83
2021/08/16 12:15:14;;;;;;;4.97;1.77;;;25.70;51.50;;;;;;2279936;55;20957;-86
2021/08/16 12:17:42;;;;;;;7.13;2.10;;;25.70;51.30;;;;;;2479878;55;21006;-84
2021/08/16 12:20:13;;;;;;;3.97;1.67;;;25.70;51.20;;;;;;2273234;55;21560;-86
2021/08/16 12:22:57;;;;;;;5.15;1.85;;;25.70;51.00;;;;;;2281899;55;21081;-85
2021/08/16 12:25:24;;;;;;;5.30;1.90;;;25.60;50.70;;;;;;2255605;55;21015;-86
2021/08/16 12:27:57;;;;;;;3.75;1.60;;;25.60;51.10;;;;;;2493337;55;20994;-84
2021/08/16 12:30:24;;;;;;;5.93;1.92;;;25.60;50.90;;;;;;2280141;55;21065;-86
2021/08/16 12:32:50;;;;;;;4.97;1.70;;;25.60;51.00;;;;;;2480681;55;21689;-85
2021/08/16 12:35:18;;;;;;;4.32;1.80;;;25.60;51.00;;;;;;2275254;55;21145;-87
2021/08/16 12:37:45;;;;;;;4.22;1.65;;;25.60;50.90;;;;;;2271562;55;21025;-86
2021/08/16 12:40:22;;;;;;;4.90;1.55;;;25.70;51.10;;;;;;2495129;55;21885;-85
2021/08/16 12:42:55;;;;;;;3.95;1.58;;;25.70;50.80;;;;;;2235658;55;21010;-85
2021/08/16 12:45:21;;;;;;;4.57;1.87;;;25.70;50.90;;;;;;2493730;55;21301;-85
2021/08/16 12:48:08;;;;;;;4.05;1.40;;;25.70;51.00;;;;;;2492016;55;21780;-85
2021/08/16 12:50:36;;;;;;;4.15;1.48;;;25.70;51.10;;;;;;2469787;55;21089;-84
2021/08/16 12:53:05;;;;;;;5.00;1.52;;;25.80;50.70;;;;;;2492928;55;20989;-85
2021/08/16 12:55:32;;;;;;;4.43;1.65;;;25.80;50.20;;;;;;2277886;55;21100;-85
2021/08/16 12:57:58;;;;;;;4.53;1.65;;;25.80;50.20;;;;;;2496341;55;21701;-85
2021/08/16 13:00:27;;;;;;;4.12;1.58;;;25.80;50.40;;;;;;2481159;55;21080;-89